Time;durP1;ratioP1;P1;durP2;ratioP2;P2;SDS_P1;SDS_P2;PMS_P1;PMS_P2;Temp;Humidity;BMP_temperature;BMP_pressure;BME280_temperature;BME280_humidity;BME280_pressure;Samples;Min_cycle;Max_cycle;Signal;HPM_P1;HPM_P2
2022/10/02 00:02:15;;;;;;;;;3.00;1.00;;;;;;;;4982333;28;8827;-82
2022/10/02 00:04:49;;;;;;;;;0.00;0.00;;;;;;;;4983665;28;9429;-83
2022/10/02 00:07:18;;;;;;;;;1.50;1.00;;;;;;;;4977004;28;8871;-82
2022/10/02 00:09:49;;;;;;;;;3.75;1.00;;;;;;;;4984495;28;8922;-82
2022/10/02 00:12:22;;;;;;;;;2.00;0.25;;;;;;;;4983875;28;8902;-84
2022/10/02 00:14:52;;;;;;;;;2.25;1.00;;;;;;;;4983282;28;8870;-83
2022/10/02 00:17:24;;;;;;;;;1.75;1.75;;;;;;;;4984433;28;8886;-83
2022/10/02 00:19:54;;;;;;;;;3.00;2.00;;;;;;;;4982733;28;8882;-83
2022/10/02 00:22:33;;;;;;;;;2.75;2.50;;;;;;;;4978766;28;8875;-83
2022/10/02 00:25:07;;;;;;;;;1.75;1.00;;;;;;;;4981838;28;8878;-83
2022/10/02 00:27:42;;;;;;;;;1.75;1.00;;;;;;;;4984038;28;8859;-83
2022/10/02 00:30:12;;;;;;;;;3.50;2.25;;;;;;;;4983709;28;8862;-83
2022/10/02 00:32:50;;;;;;;;;2.00;1.00;;;;;;;;4981893;28;8910;-82
2022/10/02 00:35:39;;;;;;;;;2.50;1.75;;;;;;;;4983507;28;8886;-83
2022/10/02 00:38:15;;;;;;;;;4.00;1.75;;;;;;;;4982066;28;8918;-83
2022/10/02 00:41:14;;;;;;;;;0.50;0.50;;;;;;;;4990723;28;9029;-80
2022/10/02 00:43:50;;;;;;;;;1.75;1.75;;;;;;;;4984687;28;8934;-83
2022/10/02 00:46:32;;;;;;;;;2.25;1.00;;;;;;;;4981309;28;8899;-83
2022/10/02 00:49:21;;;;;;;;;1.00;1.00;;;;;;;;4987510;28;8883;-81
2022/10/02 00:52:02;;;;;;;;;0.50;0.50;;;;;;;;4987611;28;8858;-82
2022/10/02 00:54:48;;;;;;;;;1.50;1.50;;;;;;;;4986612;28;8859;-83
2022/10/02 00:57:22;;;;;;;;;1.75;1.75;;;;;;;;4987609;28;8894;-83
2022/10/02 01:00:02;;;;;;;;;1.00;1.00;;;;;;;;4985894;28;8909;-83
2022/10/02 01:03:05;;;;;;;;;1.25;1.25;;;;;;;;4983015;28;8942;-82
2022/10/02 01:05:34;;;;;;;;;4.00;2.00;;;;;;;;4978908;28;8879;-83
2022/10/02 01:08:02;;;;;;;;;2.75;2.00;;;;;;;;4986717;28;8879;-83
2022/10/02 01:10:29;;;;;;;;;1.00;1.00;;;;;;;;4985662;28;8903;-83
2022/10/02 01:12:57;;;;;;;;;3.00;2.00;;;;;;;;4986222;28;8917;-82
2022/10/02 01:15:29;;;;;;;;;3.00;2.50;;;;;;;;4986682;28;8867;-83
2022/10/02 01:17:57;;;;;;;;;3.75;1.75;;;;;;;;4987013;28;8901;-84
2022/10/02 01:20:29;;;;;;;;;2.25;1.75;;;;;;;;4986354;28;8902;-83
2022/10/02 01:23:05;;;;;;;;;3.00;1.25;;;;;;;;4986865;28;8882;-84
2022/10/02 01:25:34;;;;;;;;;2.25;2.25;;;;;;;;4979990;28;8892;-84
2022/10/02 01:28:02;;;;;;;;;2.25;2.00;;;;;;;;4985433;28;8976;-82
2022/10/02 01:30:30;;;;;;;;;4.50;2.00;;;;;;;;4985826;28;8791;-84
2022/10/02 01:33:00;;;;;;;;;3.25;2.00;;;;;;;;4984595;28;8909;-84
2022/10/02 01:35:30;;;;;;;;;3.00;1.00;;;;;;;;4986853;28;8863;-81
2022/10/02 01:37:58;;;;;;;;;2.50;2.25;;;;;;;;4985971;28;8886;-83
2022/10/02 01:40:28;;;;;;;;;4.75;2.00;;;;;;;;4986894;28;8904;-83
2022/10/02 01:43:00;;;;;;;;;1.50;1.50;;;;;;;;4985534;28;8878;-83
2022/10/02 01:45:37;;;;;;;;;4.00;2.00;;;;;;;;4986276;28;8944;-83
2022/10/02 01:48:11;;;;;;;;;2.50;1.00;;;;;;;;4986933;28;8850;-83
2022/10/02 01:50:48;;;;;;;;;1.75;1.75;;;;;;;;4985586;28;8867;-83
2022/10/02 01:53:23;;;;;;;;;2.00;2.00;;;;;;;;4987269;28;8907;-83
2022/10/02 01:55:56;;;;;;;;;3.00;2.00;;;;;;;;4983387;28;8889;-82
2022/10/02 01:58:30;;;;;;;;;1.00;1.00;;;;;;;;4984563;28;8858;-83
2022/10/02 02:01:04;;;;;;;;;3.00;1.50;;;;;;;;4985699;28;8791;-83
2022/10/02 02:03:40;;;;;;;;;1.00;1.00;;;;;;;;4983924;28;8890;-82
2022/10/02 02:06:12;;;;;;;;;3.50;1.75;;;;;;;;4984841;28;8874;-84
2022/10/02 02:08:46;;;;;;;;;2.00;0.25;;;;;;;;4984919;28;8900;-83
2022/10/02 02:11:15;;;;;;;;;1.25;1.25;;;;;;;;4982780;28;8871;-82
2022/10/02 02:13:48;;;;;;;;;1.50;1.50;;;;;;;;4985089;28;8885;-83
2022/10/02 02:16:22;;;;;;;;;3.75;2.00;;;;;;;;4984241;28;8870;-82
2022/10/02 02:18:52;;;;;;;;;3.25;1.50;;;;;;;;4986979;28;8866;-84
2022/10/02 02:21:24;;;;;;;;;2.50;2.00;;;;;;;;4985490;28;8908;-84
2022/10/02 02:23:52;;;;;;;;;1.25;1.25;;;;;;;;4986468;28;8918;-83
2022/10/02 02:26:21;;;;;;;;;2.00;1.00;;;;;;;;4985026;28;8900;-81
2022/10/02 02:28:52;;;;;;;;;2.75;1.00;;;;;;;;4985934;28;8895;-83
2022/10/02 02:31:22;;;;;;;;;2.50;2.25;;;;;;;;4983515;28;8815;-83
2022/10/02 02:33:52;;;;;;;;;2.75;1.50;;;;;;;;4985640;28;8898;-82
2022/10/02 02:36:21;;;;;;;;;2.50;1.00;;;;;;;;4986277;28;8892;-84
2022/10/02 02:38:51;;;;;;;;;2.50;1.00;;;;;;;;4983381;28;8885;-84
2022/10/02 02:41:23;;;;;;;;;2.00;0.75;;;;;;;;4985349;28;8859;-83
2022/10/02 02:43:55;;;;;;;;;5.00;1.75;;;;;;;;4984514;28;8906;-81
2022/10/02 02:46:27;;;;;;;;;1.00;1.00;;;;;;;;4985147;28;8879;-83
2022/10/02 02:49:00;;;;;;;;;1.00;1.00;;;;;;;;4985804;28;9685;-84
2022/10/02 02:51:31;;;;;;;;;1.25;1.25;;;;;;;;4985395;28;8879;-83
2022/10/02 02:54:03;;;;;;;;;1.75;1.75;;;;;;;;4985073;28;8978;-83
2022/10/02 02:56:32;;;;;;;;;1.00;1.00;;;;;;;;4983757;28;9017;-81
2022/10/02 02:59:05;;;;;;;;;2.50;0.75;;;;;;;;4984650;28;8902;-82
2022/10/02 03:01:33;;;;;;;;;2.25;2.25;;;;;;;;4983749;28;8811;-83
2022/10/02 03:04:01;;;;;;;;;1.25;1.25;;;;;;;;4984971;28;9633;-82
2022/10/02 03:06:32;;;;;;;;;1.75;1.00;;;;;;;;4984705;28;8866;-83
2022/10/02 03:09:00;;;;;;;;;1.50;1.00;;;;;;;;4982601;28;8889;-81
2022/10/02 03:11:40;;;;;;;;;2.00;2.00;;;;;;;;4985751;28;9649;-82
2022/10/02 03:14:24;;;;;;;;;2.50;1.50;;;;;;;;4983006;28;9011;-83
2022/10/02 03:16:59;;;;;;;;;3.75;1.75;;;;;;;;4984775;28;8910;-82
2022/10/02 03:19:37;;;;;;;;;2.25;2.25;;;;;;;;4982815;28;8871;-83
2022/10/02 03:22:08;;;;;;;;;2.50;1.75;;;;;;;;4984631;28;8863;-81
2022/10/02 03:24:41;;;;;;;;;1.00;1.00;;;;;;;;4984872;28;8906;-83
2022/10/02 03:27:12;;;;;;;;;1.00;1.00;;;;;;;;4982114;28;8906;-83
2022/10/02 03:29:45;;;;;;;;;2.00;2.00;;;;;;;;4984712;28;8867;-82
2022/10/02 03:32:14;;;;;;;;;2.50;1.50;;;;;;;;4984035;28;8816;-82
2022/10/02 03:34:41;;;;;;;;;2.00;2.00;;;;;;;;4983698;28;8878;-83
2022/10/02 03:37:09;;;;;;;;;1.00;1.00;;;;;;;;4985124;28;8884;-82
2022/10/02 03:39:40;;;;;;;;;3.50;1.00;;;;;;;;4983345;28;8910;-81
2022/10/02 03:42:10;;;;;;;;;1.50;1.00;;;;;;;;4984637;28;8871;-81
2022/10/02 03:44:37;;;;;;;;;1.00;1.00;;;;;;;;4983246;28;9168;-81
2022/10/02 03:47:06;;;;;;;;;2.25;1.50;;;;;;;;4982800;28;8933;-81
2022/10/02 03:49:33;;;;;;;;;1.50;0.00;;;;;;;;4983940;28;8875;-81
2022/10/02 03:52:01;;;;;;;;;1.50;1.50;;;;;;;;4983927;28;8871;-81
2022/10/02 03:54:34;;;;;;;;;1.00;1.00;;;;;;;;4984252;28;8855;-82
2022/10/02 03:57:05;;;;;;;;;1.00;1.00;;;;;;;;4982531;28;8883;-81
2022/10/02 03:59:40;;;;;;;;;1.00;1.00;;;;;;;;4984267;28;8997;-82
2022/10/02 04:02:14;;;;;;;;;1.00;1.00;;;;;;;;4980748;28;8827;-82
2022/10/02 04:04:46;;;;;;;;;3.75;1.25;;;;;;;;4982742;28;8945;-82
2022/10/02 04:07:18;;;;;;;;;3.00;1.00;;;;;;;;4984242;28;8863;-83
2022/10/02 04:09:48;;;;;;;;;3.75;2.00;;;;;;;;4982849;28;9673;-82
2022/10/02 04:12:19;;;;;;;;;1.25;1.00;;;;;;;;4984505;28;8880;-83
2022/10/02 04:14:51;;;;;;;;;1.00;1.00;;;;;;;;4982211;28;8906;-81
2022/10/02 04:17:24;;;;;;;;;1.75;1.00;;;;;;;;4984265;28;8866;-82
2022/10/02 04:19:55;;;;;;;;;1.00;1.00;;;;;;;;4983701;28;9672;-83
2022/10/02 04:22:27;;;;;;;;;2.00;2.00;;;;;;;;4987723;28;9655;-82
2022/10/02 04:24:59;;;;;;;;;2.50;2.00;;;;;;;;4990145;28;8993;-84
2022/10/02 04:27:33;;;;;;;;;4.25;1.75;;;;;;;;4987297;28;8875;-84
2022/10/02 04:30:03;;;;;;;;;4.75;3.00;;;;;;;;4985881;28;8916;-82
2022/10/02 04:32:35;;;;;;;;;5.00;2.00;;;;;;;;4984246;28;8851;-80
2022/10/02 04:35:05;;;;;;;;;4.00;3.25;;;;;;;;4988178;28;8878;-83
2022/10/02 04:37:44;;;;;;;;;1.75;1.00;;;;;;;;4987749;28;8879;-82
2022/10/02 04:40:39;;;;;;;;;2.00;2.00;;;;;;;;4986063;28;8901;-82
2022/10/02 04:43:16;;;;;;;;;5.50;2.00;;;;;;;;4987323;28;9719;-83
2022/10/02 04:45:54;;;;;;;;;2.00;0.50;;;;;;;;4986677;28;9630;-82
2022/10/02 04:48:54;;;;;;;;;2.00;2.00;;;;;;;;4987610;28;8900;-81
2022/10/02 04:51:33;;;;;;;;;1.75;1.75;;;;;;;;4955675;28;8917;-82
2022/10/02 04:54:17;;;;;;;;;3.00;3.00;;;;;;;;4983833;28;8888;-82
2022/10/02 04:56:56;;;;;;;;;2.25;2.00;;;;;;;;4987391;28;8851;-82
2022/10/02 04:59:35;;;;;;;;;3.00;3.00;;;;;;;;4985961;28;8871;-83
2022/10/02 05:02:11;;;;;;;;;4.25;2.25;;;;;;;;4984840;28;8845;-82
2022/10/02 05:05:09;;;;;;;;;2.50;2.50;;;;;;;;4987599;28;8863;-82
2022/10/02 05:07:49;;;;;;;;;3.00;3.00;;;;;;;;4966022;28;8960;-80
2022/10/02 05:10:31;;;;;;;;;6.00;3.00;;;;;;;;4986293;28;8871;-82
2022/10/02 05:13:08;;;;;;;;;2.75;1.50;;;;;;;;4986969;28;8897;-80
2022/10/02 05:15:51;;;;;;;;;3.00;3.00;;;;;;;;4982810;28;8878;-82
2022/10/02 05:18:35;;;;;;;;;3.00;1.00;;;;;;;;4986022;28;8897;-81
2022/10/02 05:21:13;;;;;;;;;6.00;3.00;;;;;;;;4986900;28;8854;-81
2022/10/02 05:23:50;;;;;;;;;3.00;3.00;;;;;;;;4985699;28;8879;-80
2022/10/02 05:27:08;;;;;;;;;3.25;3.25;;;;;;;;4985479;28;8908;-82
2022/10/02 05:29:49;;;;;;;;;4.25;3.75;;;;;;;;4965156;28;8855;-83
2022/10/02 05:32:27;;;;;;;;;2.50;2.25;;;;;;;;4984132;28;8893;-81
2022/10/02 05:35:19;;;;;;;;;3.50;3.50;;;;;;;;4987168;28;8887;-82
2022/10/02 05:37:56;;;;;;;;;3.00;3.00;;;;;;;;4980407;28;8883;-83
2022/10/02 05:40:32;;;;;;;;;4.00;3.00;;;;;;;;4986421;28;8965;-83
2022/10/02 05:43:06;;;;;;;;;5.00;4.00;;;;;;;;4985414;28;8960;-83
2022/10/02 05:45:36;;;;;;;;;2.50;2.50;;;;;;;;4985753;28;8972;-82
2022/10/02 05:48:08;;;;;;;;;1.75;1.75;;;;;;;;4987038;28;8959;-84
2022/10/02 05:50:37;;;;;;;;;2.00;2.00;;;;;;;;4985152;28;9766;-82
2022/10/02 05:53:08;;;;;;;;;3.25;3.25;;;;;;;;4987347;28;9021;-84
2022/10/02 05:55:41;;;;;;;;;1.50;1.50;;;;;;;;4986219;28;9648;-84
2022/10/02 05:58:13;;;;;;;;;2.00;2.00;;;;;;;;4985249;28;8904;-83
2022/10/02 06:00:45;;;;;;;;;3.25;3.00;;;;;;;;4985493;28;8811;-84
2022/10/02 06:03:19;;;;;;;;;2.00;2.00;;;;;;;;4986118;28;9648;-84
2022/10/02 06:05:54;;;;;;;;;2.00;2.00;;;;;;;;4977470;28;8882;-84
2022/10/02 06:08:30;;;;;;;;;2.00;2.00;;;;;;;;4986211;28;8891;-89
2022/10/02 06:11:03;;;;;;;;;2.00;2.00;;;;;;;;4979722;28;8878;-86
2022/10/02 06:13:35;;;;;;;;;1.00;1.00;;;;;;;;4983488;28;8867;-82
2022/10/02 06:16:08;;;;;;;;;1.00;1.00;;;;;;;;4984206;28;8875;-80
2022/10/02 06:18:40;;;;;;;;;0.25;0.25;;;;;;;;4985588;28;8908;-79
2022/10/02 06:21:09;;;;;;;;;1.25;1.25;;;;;;;;4986375;28;8863;-84
2022/10/02 06:23:40;;;;;;;;;1.25;1.25;;;;;;;;4984388;28;8887;-79
2022/10/02 06:26:13;;;;;;;;;1.00;1.00;;;;;;;;4984847;28;8855;-76
2022/10/02 06:28:43;;;;;;;;;3.00;2.00;;;;;;;;4981717;28;8885;-80
2022/10/02 06:31:20;;;;;;;;;2.00;2.00;;;;;;;;4984249;28;8804;-77
2022/10/02 06:33:47;;;;;;;;;0.75;0.75;;;;;;;;4981330;28;8941;-80
2022/10/02 06:36:32;;;;;;;;;2.50;1.00;;;;;;;;4984281;28;9021;-80
2022/10/02 06:39:22;;;;;;;;;1.00;1.00;;;;;;;;4984325;28;8887;-82
2022/10/02 06:42:00;;;;;;;;;1.00;1.00;;;;;;;;4985288;28;9462;-80
2022/10/02 06:44:34;;;;;;;;;0.00;0.00;;;;;;;;4983276;28;8853;-86
2022/10/02 06:47:14;;;;;;;;;1.00;1.00;;;;;;;;4983024;28;9719;-80
2022/10/02 06:49:53;;;;;;;;;1.00;1.00;;;;;;;;4982989;28;9629;-84
2022/10/02 06:52:28;;;;;;;;;0.25;0.25;;;;;;;;4983877;28;8873;-79
2022/10/02 06:55:12;;;;;;;;;0.25;0.25;;;;;;;;4980453;28;8866;-83
2022/10/02 06:57:53;;;;;;;;;0.00;0.00;;;;;;;;4980264;28;8895;-79
2022/10/02 07:00:22;;;;;;;;;2.75;0.00;;;;;;;;4980703;28;8897;-78
2022/10/02 07:03:18;;;;;;;;;1.00;0.50;;;;;;;;4983609;28;8875;-84
2022/10/02 07:06:09;;;;;;;;;0.50;0.50;;;;;;;;4983035;28;8904;-80
2022/10/02 07:08:49;;;;;;;;;1.00;0.00;;;;;;;;4980735;28;8878;-82
2022/10/02 07:11:22;;;;;;;;;0.25;0.00;;;;;;;;4981887;28;8902;-79
2022/10/02 07:14:13;;;;;;;;;1.25;0.00;;;;;;;;4981027;28;8937;-79
2022/10/02 07:16:57;;;;;;;;;0.00;0.00;;;;;;;;4981555;28;8883;-78
2022/10/02 07:19:43;;;;;;;;;0.00;0.00;;;;;;;;4977619;28;8883;-79
2022/10/02 07:22:32;;;;;;;;;0.00;0.00;;;;;;;;4980851;28;8883;-77
2022/10/02 07:25:19;;;;;;;;;0.00;0.00;;;;;;;;4982292;28;8899;-76
2022/10/02 07:27:50;;;;;;;;;0.00;0.00;;;;;;;;4983616;28;8867;-75
2022/10/02 07:30:19;;;;;;;;;0.00;0.00;;;;;;;;4981974;28;8898;-76
2022/10/02 07:32:47;;;;;;;;;0.00;0.00;;;;;;;;4982555;28;9626;-76
2022/10/02 07:35:38;;;;;;;;;0.00;0.00;;;;;;;;4981256;28;8878;-77
2022/10/02 07:38:22;;;;;;;;;0.50;0.00;;;;;;;;4980482;28;8902;-79
2022/10/02 07:40:58;;;;;;;;;0.00;0.00;;;;;;;;4984213;28;9001;-78
2022/10/02 07:43:52;;;;;;;;;0.00;0.00;;;;;;;;4980820;28;8879;-76
2022/10/02 07:46:25;;;;;;;;;0.00;0.00;;;;;;;;4971642;28;8891;-83
2022/10/02 07:49:03;;;;;;;;;0.00;0.00;;;;;;;;4979279;28;9652;-79
2022/10/02 07:51:49;;;;;;;;;0.00;0.00;;;;;;;;4980672;28;8918;-77
2022/10/02 07:54:46;;;;;;;;;0.00;0.00;;;;;;;;4982228;28;8873;-78
2022/10/02 07:57:31;;;;;;;;;0.00;0.00;;;;;;;;4961076;28;8879;-79
2022/10/02 08:00:05;;;;;;;;;0.80;0.00;;;;;;;;4980984;28;8862;-80
2022/10/02 08:02:39;;;;;;;;;0.00;0.00;;;;;;;;4981573;28;8815;-78
2022/10/02 08:05:17;;;;;;;;;0.00;0.00;;;;;;;;4979285;28;8870;-77
2022/10/02 08:07:49;;;;;;;;;0.40;0.00;;;;;;;;4980601;28;8887;-81
2022/10/02 08:10:20;;;;;;;;;0.00;0.00;;;;;;;;4980336;28;8879;-79
2022/10/02 08:12:52;;;;;;;;;0.00;0.00;;;;;;;;4981724;28;9668;-78
2022/10/02 08:15:22;;;;;;;;;0.00;0.00;;;;;;;;4980874;28;8877;-76
2022/10/02 08:17:54;;;;;;;;;0.00;0.00;;;;;;;;4980068;28;8879;-77
2022/10/02 08:20:27;;;;;;;;;0.00;0.00;;;;;;;;4981871;28;8879;-77
2022/10/02 08:23:00;;;;;;;;;0.00;0.00;;;;;;;;4977070;28;8956;-84
2022/10/02 08:25:31;;;;;;;;;1.20;0.20;;;;;;;;4980043;28;8925;-82
2022/10/02 08:28:01;;;;;;;;;0.00;0.00;;;;;;;;4983067;28;8875;-81
2022/10/02 08:30:29;;;;;;;;;0.50;0.50;;;;;;;;4983498;28;8806;-79
2022/10/02 08:32:58;;;;;;;;;0.00;0.00;;;;;;;;4977700;28;8895;-83
2022/10/02 08:35:33;;;;;;;;;1.00;1.00;;;;;;;;4982464;28;8886;-76
2022/10/02 08:38:22;;;;;;;;;0.75;0.75;;;;;;;;4981887;28;8891;-81
2022/10/02 08:41:23;;;;;;;;;0.50;0.00;;;;;;;;4981175;28;8909;-79
2022/10/02 08:44:34;;;;;;;;;2.00;0.00;;;;;;;;4970056;28;8903;-78
2022/10/02 08:47:31;;;;;;;;;0.00;0.00;;;;;;;;4981257;28;8913;-80
2022/10/02 08:50:30;;;;;;;;;0.00;0.00;;;;;;;;4982020;28;8918;-77
2022/10/02 08:53:34;;;;;;;;;0.75;0.75;;;;;;;;4981608;28;8871;-77
2022/10/02 08:56:29;;;;;;;;;1.50;0.00;;;;;;;;4966524;28;8899;-78
2022/10/02 08:59:22;;;;;;;;;0.00;0.00;;;;;;;;4980526;28;8889;-77
2022/10/02 09:02:27;;;;;;;;;0.00;0.00;;;;;;;;4981015;28;8837;-78
2022/10/02 09:05:34;;;;;;;;;0.00;0.00;;;;;;;;4955313;28;9678;-77
2022/10/02 09:08:22;;;;;;;;;0.00;0.00;;;;;;;;4941597;28;8863;-75
2022/10/02 09:11:18;;;;;;;;;1.00;0.00;;;;;;;;4982303;28;8883;-76
2022/10/02 09:14:16;;;;;;;;;0.00;0.00;;;;;;;;4983742;28;9729;-76
2022/10/02 09:17:02;;;;;;;;;0.00;0.00;;;;;;;;4981005;28;8997;-77
2022/10/02 09:19:40;;;;;;;;;0.00;0.00;;;;;;;;4981736;28;8858;-77
2022/10/02 09:22:27;;;;;;;;;0.00;0.00;;;;;;;;4984361;28;8855;-77
2022/10/02 09:25:22;;;;;;;;;0.00;0.00;;;;;;;;4982867;28;8878;-77
2022/10/02 09:28:39;;;;;;;;;0.00;0.00;;;;;;;;4980063;28;9755;-76
2022/10/02 09:31:31;;;;;;;;;0.00;0.00;;;;;;;;4965290;28;8941;-76
2022/10/02 09:34:40;;;;;;;;;0.00;0.00;;;;;;;;4983260;28;9679;-75
2022/10/02 09:37:49;;;;;;;;;0.00;0.00;;;;;;;;4982728;28;8871;-78
2022/10/02 09:41:19;;;;;;;;;0.00;0.00;;;;;;;;4942562;28;8889;-80
2022/10/02 09:44:19;;;;;;;;;0.00;0.00;;;;;;;;4794392;29;8881;-78
2022/10/02 09:47:23;;;;;;;;;0.00;0.00;;;;;;;;4900401;29;8897;-79
2022/10/02 09:50:13;;;;;;;;;0.00;0.00;;;;;;;;4974978;28;8898;-77
2022/10/02 09:53:08;;;;;;;;;0.00;0.00;;;;;;;;4983080;28;8882;-80
2022/10/02 09:56:25;;;;;;;;;0.00;0.00;;;;;;;;4981066;28;8868;-82
2022/10/02 09:59:18;;;;;;;;;0.00;0.00;;;;;;;;4984651;28;8901;-79
2022/10/02 10:02:22;;;;;;;;;0.00;0.00;;;;;;;;4982093;28;8804;-77
2022/10/02 10:05:38;;;;;;;;;0.00;0.00;;;;;;;;4971281;28;8909;-79
2022/10/02 10:08:39;;;;;;;;;0.00;0.00;;;;;;;;4944657;28;8913;-79
2022/10/02 10:11:46;;;;;;;;;0.00;0.00;;;;;;;;4976510;28;8883;-81
2022/10/02 10:14:50;;;;;;;;;0.00;0.00;;;;;;;;4986123;28;8879;-77
2022/10/02 10:18:02;;;;;;;;;0.00;0.00;;;;;;;;4983476;28;8875;-78
2022/10/02 10:20:52;;;;;;;;;0.00;0.00;;;;;;;;4982295;28;8911;-79
2022/10/02 10:23:51;;;;;;;;;0.00;0.00;;;;;;;;4976575;28;9704;-79
2022/10/02 10:26:42;;;;;;;;;0.00;0.00;;;;;;;;4964953;28;8867;-78
2022/10/02 10:29:44;;;;;;;;;0.00;0.00;;;;;;;;4979628;28;8893;-81
2022/10/02 10:33:00;;;;;;;;;0.00;0.00;;;;;;;;4983543;28;8842;-78
2022/10/02 10:36:05;;;;;;;;;1.00;1.00;;;;;;;;4925752;29;8899;-81
2022/10/02 10:38:51;;;;;;;;;0.00;0.00;;;;;;;;4915878;28;8884;-81
2022/10/02 10:41:56;;;;;;;;;0.25;0.25;;;;;;;;4981866;28;8847;-81
2022/10/02 10:44:54;;;;;;;;;1.50;0.00;;;;;;;;4984583;28;8957;-78
2022/10/02 10:47:42;;;;;;;;;0.00;0.00;;;;;;;;4982035;28;8889;-81
2022/10/02 10:50:37;;;;;;;;;0.00;0.00;;;;;;;;4985396;28;8906;-80
2022/10/02 10:53:23;;;;;;;;;1.00;1.00;;;;;;;;4978777;28;8855;-79
2022/10/02 10:56:27;;;;;;;;;0.80;0.80;;;;;;;;4976799;28;8902;-79
2022/10/02 10:59:54;;;;;;;;;0.00;0.00;;;;;;;;4981305;28;8871;-81
2022/10/02 11:02:52;;;;;;;;;0.80;0.80;;;;;;;;4886463;29;8871;-80
2022/10/02 11:05:53;;;;;;;;;0.00;0.00;;;;;;;;4978588;28;8863;-81
2022/10/02 11:08:46;;;;;;;;;0.00;0.00;;;;;;;;4984158;28;9606;-81
2022/10/02 11:11:20;;;;;;;;;0.00;0.00;;;;;;;;4983921;28;8886;-79
2022/10/02 11:14:06;;;;;;;;;0.00;0.00;;;;;;;;4972881;28;8882;-80
2022/10/02 11:16:58;;;;;;;;;0.00;0.00;;;;;;;;4983030;28;8899;-78
2022/10/02 11:19:49;;;;;;;;;0.00;0.00;;;;;;;;4984984;28;8878;-78
2022/10/02 11:22:28;;;;;;;;;0.00;0.00;;;;;;;;4982863;28;9637;-80
2022/10/02 11:25:17;;;;;;;;;0.50;0.50;;;;;;;;4984647;28;8997;-77
2022/10/02 11:28:03;;;;;;;;;0.75;0.75;;;;;;;;4984795;28;8898;-78
2022/10/02 11:30:35;;;;;;;;;0.00;0.00;;;;;;;;4982143;28;8822;-78
2022/10/02 11:33:25;;;;;;;;;0.00;0.00;;;;;;;;4984478;28;8902;-79
2022/10/02 11:36:15;;;;;;;;;0.00;0.00;;;;;;;;4983142;28;8917;-79
2022/10/02 11:39:08;;;;;;;;;0.00;0.00;;;;;;;;4964432;28;8994;-78
2022/10/02 11:45:07;;;;;;;;;0.00;0.00;;;;;;;;5109618;27;13560;-76
2022/10/02 11:48:07;;;;;;;;;0.00;0.00;;;;;;;;5010837;28;8850;-76
2022/10/02 11:50:57;;;;;;;;;0.00;0.00;;;;;;;;5092776;28;8867;-76
2022/10/02 11:53:34;;;;;;;;;0.00;0.00;;;;;;;;5096841;28;8882;-76
2022/10/02 11:56:21;;;;;;;;;0.00;0.00;;;;;;;;5077095;28;8844;-76
2022/10/02 11:58:56;;;;;;;;;0.00;0.00;;;;;;;;5093428;28;8863;-76
2022/10/02 12:01:32;;;;;;;;;0.00;0.00;;;;;;;;5074708;28;8894;-77
2022/10/02 12:04:24;;;;;;;;;0.50;0.00;;;;;;;;5054267;28;8873;-77
2022/10/02 12:07:03;;;;;;;;;0.00;0.00;;;;;;;;5042898;28;8880;-77
2022/10/02 12:09:45;;;;;;;;;0.00;0.00;;;;;;;;5057047;28;8900;-77
2022/10/02 12:12:23;;;;;;;;;0.00;0.00;;;;;;;;5055828;28;8883;-76
2022/10/02 12:14:58;;;;;;;;;0.00;0.00;;;;;;;;5048863;28;8972;-77
2022/10/02 12:17:54;;;;;;;;;0.25;0.00;;;;;;;;5050149;28;8876;-76
2022/10/02 12:29:25;;;;;;;;;0.00;0.00;;;;;;;;5040862;28;8848;-77
2022/10/02 12:31:59;;;;;;;;;0.00;0.00;;;;;;;;5043289;28;8844;-77
2022/10/02 12:34:38;;;;;;;;;0.00;0.00;;;;;;;;5046047;28;8870;-78
2022/10/02 12:37:12;;;;;;;;;0.00;0.00;;;;;;;;5045016;28;8949;-77
2022/10/02 12:39:45;;;;;;;;;0.50;0.00;;;;;;;;5046938;28;8848;-77
2022/10/02 12:42:35;;;;;;;;;0.00;0.00;;;;;;;;5042190;28;8880;-76
2022/10/02 12:45:17;;;;;;;;;0.50;0.00;;;;;;;;5038563;28;9765;-77
2022/10/02 12:48:06;;;;;;;;;0.00;0.00;;;;;;;;5055952;28;8858;-76
2022/10/02 12:51:08;;;;;;;;;0.00;0.00;;;;;;;;5039935;28;8884;-77
2022/10/02 12:54:11;;;;;;;;;0.00;0.00;;;;;;;;5054601;28;8866;-78
2022/10/02 12:57:06;;;;;;;;;0.00;0.00;;;;;;;;4994704;28;8876;-78
2022/10/02 12:59:40;;;;;;;;;0.00;0.00;;;;;;;;5032272;28;8870;-78
2022/10/02 13:02:49;;;;;;;;;0.00;0.00;;;;;;;;5023714;28;8811;-77
2022/10/02 13:05:58;;;;;;;;;0.00;0.00;;;;;;;;4997103;28;8919;-77
2022/10/02 13:08:36;;;;;;;;;0.00;0.00;;;;;;;;5025847;28;8881;-77
2022/10/02 13:11:10;;;;;;;;;0.00;0.00;;;;;;;;5026247;28;8895;-77
2022/10/02 13:13:52;;;;;;;;;2.75;2.75;;;;;;;;5014054;28;8852;-77
2022/10/02 13:16:27;;;;;;;;;0.00;0.00;;;;;;;;5017019;28;8876;-77
2022/10/02 13:19:04;;;;;;;;;0.00;0.00;;;;;;;;5036027;28;8877;-78
2022/10/02 13:21:41;;;;;;;;;0.00;0.00;;;;;;;;5032043;28;8896;-77
2022/10/02 13:24:21;;;;;;;;;0.00;0.00;;;;;;;;5038427;28;8882;-78
2022/10/02 13:26:53;;;;;;;;;0.00;0.00;;;;;;;;5032861;28;8880;-78
2022/10/02 13:29:34;;;;;;;;;0.00;0.00;;;;;;;;5032375;28;8868;-79
2022/10/02 13:32:13;;;;;;;;;0.75;0.00;;;;;;;;5025074;28;8831;-78
2022/10/02 13:34:54;;;;;;;;;1.00;0.00;;;;;;;;5029190;28;8872;-78
2022/10/02 13:37:32;;;;;;;;;0.00;0.00;;;;;;;;5027388;28;8884;-78
2022/10/02 13:40:16;;;;;;;;;0.00;0.00;;;;;;;;5011279;28;8854;-77
2022/10/02 13:42:54;;;;;;;;;0.00;0.00;;;;;;;;5013448;28;8875;-78
2022/10/02 13:45:25;;;;;;;;;0.00;0.00;;;;;;;;5034301;28;8915;-77
2022/10/02 13:47:58;;;;;;;;;0.00;0.00;;;;;;;;5036247;28;9580;-77
2022/10/02 13:50:42;;;;;;;;;0.00;0.00;;;;;;;;5016232;28;8899;-77
2022/10/02 13:53:25;;;;;;;;;0.00;0.00;;;;;;;;5028277;28;9616;-77
2022/10/02 13:55:55;;;;;;;;;0.00;0.00;;;;;;;;5026285;28;8871;-82
2022/10/02 13:58:50;;;;;;;;;0.00;0.00;;;;;;;;5036088;28;8903;-80
2022/10/02 14:01:30;;;;;;;;;0.00;0.00;;;;;;;;5040137;28;8822;-79
2022/10/02 14:04:14;;;;;;;;;0.00;0.00;;;;;;;;5030033;28;8857;-77
2022/10/02 14:06:44;;;;;;;;;0.00;0.00;;;;;;;;5028056;28;8867;-85
2022/10/02 14:09:34;;;;;;;;;0.00;0.00;;;;;;;;5035324;28;8875;-78
2022/10/02 14:12:27;;;;;;;;;0.00;0.00;;;;;;;;5028116;28;8903;-80
2022/10/02 14:15:14;;;;;;;;;0.00;0.00;;;;;;;;5034551;28;8942;-77
2022/10/02 14:17:52;;;;;;;;;0.00;0.00;;;;;;;;5023263;28;8883;-76
2022/10/02 14:20:30;;;;;;;;;0.00;0.00;;;;;;;;5030046;28;8888;-76
2022/10/02 14:23:17;;;;;;;;;0.00;0.00;;;;;;;;5033404;28;8857;-77
2022/10/02 14:26:01;;;;;;;;;0.00;0.00;;;;;;;;5016420;28;10044;-77
2022/10/02 14:28:50;;;;;;;;;0.00;0.00;;;;;;;;5028870;28;8915;-77
2022/10/02 14:31:27;;;;;;;;;0.00;0.00;;;;;;;;5027720;28;8837;-79
2022/10/02 14:34:34;;;;;;;;;0.00;0.00;;;;;;;;5024485;28;8903;-79
2022/10/02 14:37:40;;;;;;;;;0.00;0.00;;;;;;;;5007191;28;8883;-78
2022/10/02 14:40:13;;;;;;;;;0.50;0.00;;;;;;;;5028572;28;8887;-77
2022/10/02 14:42:57;;;;;;;;;0.75;0.00;;;;;;;;5030643;28;9003;-81
2022/10/02 14:46:04;;;;;;;;;0.00;0.00;;;;;;;;5020747;28;8879;-77
2022/10/02 14:49:25;;;;;;;;;0.00;0.00;;;;;;;;5012641;28;9615;-75
2022/10/02 14:52:03;;;;;;;;;0.00;0.00;;;;;;;;4949119;28;9656;-76
2022/10/02 14:54:48;;;;;;;;;0.00;0.00;;;;;;;;4963259;28;8989;-78
2022/10/02 14:57:45;;;;;;;;;0.00;0.00;;;;;;;;5002564;28;8892;-76
2022/10/02 15:00:17;;;;;;;;;0.00;0.00;;;;;;;;5022083;28;9889;-75
2022/10/02 15:03:29;;;;;;;;;0.00;0.00;;;;;;;;5030599;28;8870;-78
2022/10/02 15:06:24;;;;;;;;;0.00;0.00;;;;;;;;4953054;28;8880;-77
2022/10/02 15:08:55;;;;;;;;;0.00;0.00;;;;;;;;5011966;28;8857;-77
2022/10/02 15:11:27;;;;;;;;;1.00;1.00;;;;;;;;5034292;28;9641;-81
2022/10/02 15:14:00;;;;;;;;;0.00;0.00;;;;;;;;5023376;28;8868;-79
2022/10/02 15:19:23;;;;;;;;;0.00;0.00;;;;;;;;5038100;28;8864;-77
2022/10/02 15:21:55;;;;;;;;;0.00;0.00;;;;;;;;5023557;28;8906;-77
2022/10/02 15:24:31;;;;;;;;;0.00;0.00;;;;;;;;5034644;28;8903;-75
2022/10/02 15:27:07;;;;;;;;;1.00;1.00;;;;;;;;5032716;28;8858;-75
2022/10/02 15:29:45;;;;;;;;;0.00;0.00;;;;;;;;5023806;28;8857;-75
2022/10/02 15:32:51;;;;;;;;;0.00;0.00;;;;;;;;5026541;28;8821;-75
2022/10/02 15:35:28;;;;;;;;;0.00;0.00;;;;;;;;4942119;28;8879;-75
2022/10/02 15:38:18;;;;;;;;;0.25;0.00;;;;;;;;4946985;28;8908;-73
2022/10/02 15:40:59;;;;;;;;;2.50;1.00;;;;;;;;4997008;28;8861;-76
2022/10/02 15:43:39;;;;;;;;;1.40;1.40;;;;;;;;5020049;28;9652;-74
2022/10/02 15:46:15;;;;;;;;;1.00;1.00;;;;;;;;5034856;28;8849;-74
2022/10/02 15:48:58;;;;;;;;;1.20;0.00;;;;;;;;5030060;28;9025;-73
2022/10/02 15:51:52;;;;;;;;;0.00;0.00;;;;;;;;5039925;28;8870;-73
2022/10/02 15:54:31;;;;;;;;;0.00;0.00;;;;;;;;5019075;28;8852;-74
2022/10/02 15:57:26;;;;;;;;;0.50;0.50;;;;;;;;5012146;28;8883;-73
2022/10/02 16:00:10;;;;;;;;;0.00;0.00;;;;;;;;4999728;28;8883;-73
2022/10/02 16:02:55;;;;;;;;;0.00;0.00;;;;;;;;5021160;28;8980;-74
2022/10/02 16:05:50;;;;;;;;;0.00;0.00;;;;;;;;5034929;28;8889;-73
2022/10/02 16:08:42;;;;;;;;;0.75;0.75;;;;;;;;5021006;28;8896;-75
2022/10/02 16:11:47;;;;;;;;;0.00;0.00;;;;;;;;5022748;28;9661;-77
2022/10/02 16:14:18;;;;;;;;;0.00;0.00;;;;;;;;5018259;28;8930;-75
2022/10/02 16:17:06;;;;;;;;;0.00;0.00;;;;;;;;5012283;28;9008;-77
2022/10/02 16:19:52;;;;;;;;;0.00;0.00;;;;;;;;5024707;28;8848;-76
2022/10/02 16:22:31;;;;;;;;;0.00;0.00;;;;;;;;5030314;28;8938;-75
2022/10/02 16:25:20;;;;;;;;;0.00;0.00;;;;;;;;5029068;28;8860;-78
2022/10/02 16:28:02;;;;;;;;;0.00;0.00;;;;;;;;5026286;28;8867;-76
2022/10/02 16:30:33;;;;;;;;;0.00;0.00;;;;;;;;5035626;28;8844;-73
2022/10/02 16:33:21;;;;;;;;;4.00;1.00;;;;;;;;5028745;28;8889;-75
2022/10/02 16:36:11;;;;;;;;;0.00;0.00;;;;;;;;5027048;28;8876;-78
2022/10/02 16:38:48;;;;;;;;;6.00;4.25;;;;;;;;5020864;28;8898;-80